Time;durP1;ratioP1;P1;durP2;ratioP2;P2;SDS_P1;SDS_P2;PMS_P1;PMS_P2;Temp;Humidity;BMP_temperature;BMP_pressure;BME280_temperature;BME280_humidity;BME280_pressure;Samples;Min_cycle;Max_cycle;Signal;HPM_P1;HPM_P2
2023/07/29 00:01:54;;;;;;;4.20;1.20;;;;;;;17.96;78.65;99632.08;109706;1281;22202;-55
2023/07/29 00:04:25;;;;;;;5.00;1.20;;;;;;;17.95;78.64;99632.16;109748;1285;23138;-58
2023/07/29 00:06:55;;;;;;;3.20;0.80;;;;;;;17.93;78.58;99631.73;109752;1285;22170;-55
2023/07/29 00:09:26;;;;;;;5.20;1.20;;;;;;;17.91;78.77;99626.13;109759;1285;23019;-54
2023/07/29 00:11:57;;;;;;;3.50;1.10;;;;;;;17.87;78.79;99627.73;109759;1285;22306;-56
2023/07/29 00:14:28;;;;;;;8.10;1.40;;;;;;;17.85;78.78;99622.77;109759;1285;22304;-55
2023/07/29 00:16:58;;;;;;;4.10;1.10;;;;;;;17.82;78.85;99621.33;109752;1285;22890;-57
2023/07/29 00:19:29;;;;;;;7.00;1.20;;;;;;;17.79;78.77;99615.31;109753;1285;22184;-55
2023/07/29 00:22:00;;;;;;;4.00;1.10;;;;;;;17.79;78.78;99618.52;109757;1285;23506;-57
2023/07/29 00:24:31;;;;;;;4.20;1.00;;;;;;;17.76;78.87;99628.79;109757;1285;22533;-57
2023/07/29 00:27:01;;;;;;;7.40;1.30;;;;;;;17.70;78.99;99627.77;109750;1283;23077;-54
2023/07/29 00:29:32;;;;;;;6.40;1.10;;;;;;;17.64;79.10;99633.27;109771;1284;22965;-56
2023/07/29 00:32:03;;;;;;;6.40;1.40;;;;;;;17.59;79.10;99636.10;109777;1285;23016;-56
2023/07/29 00:34:34;;;;;;;4.90;1.60;;;;;;;17.55;78.96;99633.34;109762;1282;22259;-58
2023/07/29 00:37:05;;;;;;;4.10;1.00;;;;;;;17.54;79.22;99627.52;109754;1285;22263;-56
2023/07/29 00:39:37;;;;;;;5.70;1.30;;;;;;;17.50;79.19;99631.54;109762;1285;22395;-57
2023/07/29 00:42:08;;;;;;;8.50;1.20;;;;;;;17.48;79.17;99630.12;109756;1285;23063;-55
2023/07/29 00:44:39;;;;;;;4.00;1.30;;;;;;;17.45;79.35;99631.48;109766;1285;22211;-55
2023/07/29 00:47:11;;;;;;;5.00;1.30;;;;;;;17.42;79.46;99634.34;109761;1285;22300;-55
2023/07/29 00:49:42;;;;;;;5.20;1.20;;;;;;;17.37;79.44;99636.12;109747;1285;23176;-56
2023/07/29 00:52:13;;;;;;;5.10;1.20;;;;;;;17.34;79.67;99641.15;109746;1285;23023;-57
2023/07/29 00:54:44;;;;;;;5.40;1.70;;;;;;;17.30;79.78;99639.89;109774;1285;22162;-56
2023/07/29 00:57:17;;;;;;;8.20;1.40;;;;;;;17.28;79.77;99643.11;109772;1285;22255;-57
2023/07/29 00:59:52;;;;;;;5.90;1.30;;;;;;;17.24;79.99;99640.56;109755;1285;22161;-58
2023/07/29 01:02:23;;;;;;;5.20;1.30;;;;;;;17.20;80.43;99640.69;105482;1280;22528;-52
2023/07/29 01:04:57;;;;;;;5.40;1.50;;;;;;;17.18;80.56;99636.77;109783;1285;23303;-57
2023/07/29 01:07:35;;;;;;;4.60;1.10;;;;;;;17.14;80.47;99643.46;109752;1285;22165;-56
2023/07/29 01:10:15;;;;;;;3.60;1.10;;;;;;;17.11;80.35;99639.70;109750;1285;22262;-55
2023/07/29 01:12:52;;;;;;;6.80;1.60;;;;;;;17.09;80.30;99635.65;109788;1282;23318;-57
2023/07/29 01:15:30;;;;;;;4.80;1.30;;;;;;;17.07;80.37;99631.21;109776;1285;22149;-56
2023/07/29 01:18:05;;;;;;;3.90;1.10;;;;;;;17.02;80.49;99630.50;109763;1285;23311;-53
2023/07/29 01:20:41;;;;;;;5.50;1.40;;;;;;;16.97;80.55;99635.16;109777;1285;22403;-56
2023/07/29 01:23:12;;;;;;;6.70;1.50;;;;;;;16.93;80.60;99633.19;109753;1285;22563;-56
2023/07/29 01:25:43;;;;;;;5.50;1.20;;;;;;;16.90;80.79;99631.23;109748;1278;22232;-55
2023/07/29 01:28:13;;;;;;;6.50;1.30;;;;;;;16.86;80.70;99631.20;109767;1285;22156;-56
2023/07/29 01:30:46;;;;;;;5.40;1.20;;;;;;;16.83;81.03;99631.08;109748;1285;22231;-55
2023/07/29 01:33:21;;;;;;;8.50;1.40;;;;;;;16.79;81.12;99630.90;109746;1280;22973;-57
2023/07/29 01:35:59;;;;;;;4.80;1.20;;;;;;;16.75;81.23;99636.60;109746;1285;22798;-56
2023/07/29 01:38:36;;;;;;;7.70;1.60;;;;;;;16.71;81.32;99639.02;109788;1284;22182;-57
2023/07/29 01:41:09;;;;;;;4.70;1.40;;;;;;;16.71;81.32;99637.55;109767;1284;22214;-56
2023/07/29 01:43:43;;;;;;;5.40;1.70;;;;;;;16.69;81.43;99642.28;109782;1285;22930;-56
2023/07/29 01:46:15;;;;;;;12.40;2.20;;;;;;;16.65;81.83;99642.50;109763;1285;22935;-57
2023/07/29 01:48:46;;;;;;;8.50;1.70;;;;;;;16.60;81.99;99636.23;109770;1285;22891;-57
2023/07/29 01:51:17;;;;;;;5.60;1.60;;;;;;;16.55;82.02;99635.11;109757;1282;22163;-57
2023/07/29 01:53:47;;;;;;;6.30;1.80;;;;;;;16.52;82.10;99636.80;109767;1285;22723;-56
2023/07/29 01:56:18;;;;;;;6.90;1.90;;;;;;;16.47;82.21;99634.73;109750;1285;23441;-57
2023/07/29 01:58:49;;;;;;;9.40;1.90;;;;;;;16.45;82.41;99641.53;109733;1285;22219;-57
2023/07/29 02:01:20;;;;;;;6.70;1.40;;;;;;;16.42;82.41;99645.34;109714;1285;22115;-56
2023/07/29 02:03:55;;;;;;;6.30;1.70;;;;;;;16.39;82.46;99646.59;109743;1285;22170;-56
2023/07/29 02:06:27;;;;;;;8.00;2.10;;;;;;;16.38;82.49;99647.89;109738;1285;22150;-57
2023/07/29 02:08:58;;;;;;;6.60;1.80;;;;;;;16.36;82.42;99651.76;109732;1283;22152;-57
2023/07/29 02:11:28;;;;;;;10.10;1.60;;;;;;;16.34;82.40;99649.84;109746;1279;22157;-56
2023/07/29 02:13:59;;;;;;;6.10;1.70;;;;;;;16.31;82.46;99644.96;109773;1283;22172;-55
2023/07/29 02:16:30;;;;;;;7.40;1.90;;;;;;;16.29;82.57;99644.33;109769;1285;22178;-56
2023/07/29 02:19:01;;;;;;;5.90;1.40;;;;;;;16.26;82.59;99638.17;109775;1285;22199;-57
2023/07/29 02:21:31;;;;;;;8.20;1.80;;;;;;;16.22;82.61;99640.70;109750;1285;23263;-57
2023/07/29 02:24:02;;;;;;;6.70;1.60;;;;;;;16.17;82.80;99639.23;109775;1285;22228;-57
2023/07/29 02:26:33;;;;;;;10.90;2.20;;;;;;;16.13;82.80;99641.45;109779;1285;22609;-55
2023/07/29 02:29:04;;;;;;;8.00;1.90;;;;;;;16.12;82.62;99635.83;109753;1285;22194;-57
2023/07/29 02:31:37;;;;;;;7.60;1.80;;;;;;;16.11;82.52;99633.65;109747;1285;22339;-56
2023/07/29 02:34:08;;;;;;;10.30;1.70;;;;;;;16.08;82.69;99631.96;109752;1285;22331;-56
2023/07/29 02:36:38;;;;;;;5.80;1.70;;;;;;;16.05;82.85;99624.77;109757;1280;22872;-57
2023/07/29 02:39:10;;;;;;;6.80;1.80;;;;;;;16.02;82.96;99621.54;109767;1285;22219;-57
2023/07/29 02:41:41;;;;;;;6.60;1.60;;;;;;;16.00;83.15;99618.08;109725;1277;22219;-56
2023/07/29 02:44:11;;;;;;;6.30;1.90;;;;;;;15.96;83.43;99619.88;109747;1285;22214;-56
2023/07/29 02:46:42;;;;;;;6.90;1.80;;;;;;;15.91;83.52;99621.63;109753;1285;22226;-57
2023/07/29 02:49:13;;;;;;;7.60;1.60;;;;;;;15.88;83.62;99623.20;109770;1285;22187;-55
2023/07/29 02:51:44;;;;;;;8.40;2.00;;;;;;;15.85;83.73;99624.00;109768;1280;23493;-57
2023/07/29 02:54:15;;;;;;;5.00;1.60;;;;;;;15.84;83.55;99626.01;109732;1285;22226;-55
2023/07/29 02:56:45;;;;;;;6.40;1.70;;;;;;;15.81;83.58;99623.08;109738;1285;22354;-57
2023/07/29 02:59:16;;;;;;;8.60;1.50;;;;;;;15.79;83.56;99620.08;109770;1285;22218;-56
2023/07/29 03:01:47;;;;;;;5.70;1.40;;;;;;;15.78;83.62;99622.40;109744;1281;22183;-57
2023/07/29 03:04:18;;;;;;;9.10;1.70;;;;;;;15.74;83.47;99628.48;109760;1285;22257;-56
2023/07/29 03:06:48;;;;;;;5.10;1.30;;;;;;;15.71;83.77;99625.15;109739;1285;23294;-55
2023/07/29 03:09:19;;;;;;;7.00;1.90;;;;;;;15.68;83.77;99625.59;109731;1285;22249;-58
2023/07/29 03:11:51;;;;;;;6.40;1.80;;;;;;;15.66;83.83;99624.95;109757;1285;22183;-58
2023/07/29 03:14:22;;;;;;;5.70;1.80;;;;;;;15.62;83.88;99627.80;109777;1280;22151;-55
2023/07/29 03:16:53;;;;;;;8.80;2.20;;;;;;;15.59;84.10;99633.73;109759;1285;22167;-56
2023/07/29 03:19:24;;;;;;;5.90;1.60;;;;;;;15.58;84.25;99640.65;109755;1285;22329;-57
2023/07/29 03:21:54;;;;;;;5.20;1.50;;;;;;;15.56;84.26;99641.58;109698;1279;23072;-57
2023/07/29 03:24:25;;;;;;;7.60;2.90;;;;;;;15.53;84.39;99640.33;109788;1285;22272;-58
2023/07/29 03:26:56;;;;;;;4.20;1.60;;;;;;;15.52;84.75;99637.84;109739;1285;22376;-57
2023/07/29 03:29:28;;;;;;;5.70;1.40;;;;;;;15.51;84.79;99637.90;109753;1280;23278;-56
2023/07/29 03:31:59;;;;;;;7.80;1.70;;;;;;;15.52;84.96;99634.61;109748;1285;22186;-55
2023/07/29 03:34:30;;;;;;;6.90;1.80;;;;;;;15.52;85.05;99636.51;109766;1285;23307;-56
2023/07/29 03:37:01;;;;;;;4.10;1.50;;;;;;;15.53;84.92;99638.04;109774;1282;22137;-56
2023/07/29 03:39:32;;;;;;;6.20;1.50;;;;;;;15.55;85.11;99647.63;109761;1285;23015;-57
2023/07/29 03:42:03;;;;;;;4.30;1.50;;;;;;;15.56;85.27;99647.25;109778;1285;22374;-58
2023/07/29 03:44:35;;;;;;;5.30;1.70;;;;;;;15.59;85.41;99645.48;109762;1282;22579;-57
2023/07/29 03:47:06;;;;;;;4.80;1.70;;;;;;;15.63;85.35;99645.80;109765;1283;22160;-57
2023/07/29 03:49:37;;;;;;;6.00;1.50;;;;;;;15.67;85.75;99647.14;109763;1270;22929;-56
2023/07/29 03:52:09;;;;;;;7.20;1.70;;;;;;;15.69;85.96;99651.58;109796;1285;23023;-55
2023/07/29 03:54:40;;;;;;;9.30;1.70;;;;;;;15.69;86.50;99642.77;109768;1285;23077;-57
2023/07/29 03:57:10;;;;;;;5.90;1.60;;;;;;;15.67;86.61;99649.90;109762;1285;22246;-56
2023/07/29 03:59:41;;;;;;;4.70;1.80;;;;;;;15.69;86.69;99648.81;109736;1285;23154;-57
2023/07/29 04:02:12;;;;;;;8.70;1.70;;;;;;;15.71;86.89;99651.45;109768;1285;22200;-58
2023/07/29 04:04:44;;;;;;;6.80;1.50;;;;;;;15.72;87.22;99651.48;109781;1285;23255;-57
2023/07/29 04:07:15;;;;;;;5.90;1.50;;;;;;;15.74;87.04;99655.24;109748;1285;22224;-58
2023/07/29 04:09:46;;;;;;;6.90;1.60;;;;;;;15.78;87.09;99657.81;109717;1278;22711;-57
2023/07/29 04:12:16;;;;;;;5.50;1.50;;;;;;;15.82;87.62;99659.25;109751;1278;22182;-58
2023/07/29 04:14:47;;;;;;;5.70;1.50;;;;;;;15.85;87.68;99656.20;109746;1277;22363;-57
2023/07/29 04:17:18;;;;;;;6.30;1.60;;;;;;;15.88;88.04;99659.61;109762;1282;22395;-57
2023/07/29 04:19:49;;;;;;;5.30;1.60;;;;;;;15.89;88.04;99659.93;109742;1282;22237;-57
2023/07/29 04:22:19;;;;;;;5.50;1.70;;;;;;;15.92;88.14;99660.16;109755;1285;22178;-57
2023/07/29 04:24:50;;;;;;;6.30;1.50;;;;;;;15.95;88.33;99661.86;109775;1285;22275;-57
2023/07/29 04:27:21;;;;;;;6.50;2.10;;;;;;;15.98;88.50;99660.43;109770;1285;22383;-57
2023/07/29 04:29:52;;;;;;;7.10;1.60;;;;;;;16.03;88.74;99660.13;109747;1276;22172;-56
2023/07/29 04:32:23;;;;;;;5.40;1.40;;;;;;;16.08;88.98;99659.85;109752;1280;22221;-57
2023/07/29 04:34:53;;;;;;;5.40;1.70;;;;;;;16.13;89.21;99662.86;109757;1277;22865;-58
2023/07/29 04:37:24;;;;;;;8.60;1.80;;;;;;;16.19;89.35;99661.14;109745;1285;22626;-56
2023/07/29 04:39:55;;;;;;;7.00;2.20;;;;;;;16.25;89.88;99661.73;109751;1285;22170;-58
2023/07/29 04:42:26;;;;;;;5.50;1.50;;;;;;;16.32;89.91;99658.58;109760;1280;22177;-57
2023/07/29 04:44:57;;;;;;;7.10;1.70;;;;;;;16.37;90.08;99661.21;109768;1285;22195;-56
2023/07/29 04:47:28;;;;;;;7.70;2.40;;;;;;;16.43;90.24;99658.98;109777;1285;22250;-57
2023/07/29 04:49:59;;;;;;;7.50;1.50;;;;;;;16.48;90.42;99661.64;109761;1270;22866;-58
2023/07/29 04:52:29;;;;;;;8.30;2.20;;;;;;;16.54;90.66;99657.73;109757;1279;22899;-57
2023/07/29 04:55:00;;;;;;;6.70;1.70;;;;;;;16.60;90.70;99658.98;109754;1282;22870;-58
2023/07/29 04:57:32;;;;;;;7.10;1.90;;;;;;;16.64;90.72;99657.69;109787;1285;22173;-57
2023/07/29 05:00:03;;;;;;;8.30;1.60;;;;;;;16.68;90.68;99657.00;109725;1285;22142;-57
2023/07/29 05:02:34;;;;;;;10.10;2.20;;;;;;;16.72;90.59;99661.77;109756;1285;22331;-57
2023/07/29 05:05:06;;;;;;;6.80;1.90;;;;;;;16.76;90.74;99662.89;109776;1285;22160;-57
2023/07/29 05:07:36;;;;;;;6.50;2.00;;;;;;;16.80;90.84;99661.17;109764;1285;23329;-56
2023/07/29 05:10:09;;;;;;;7.10;1.60;;;;;;;16.86;90.59;99658.72;109724;1285;22259;-57
2023/07/29 05:12:40;;;;;;;8.20;1.90;;;;;;;16.94;90.95;99660.75;109715;1277;22174;-57
2023/07/29 05:15:12;;;;;;;9.30;1.60;;;;;;;17.03;90.78;99662.82;109763;1277;23294;-58
2023/07/29 05:17:43;;;;;;;8.00;1.60;;;;;;;17.11;90.79;99660.17;108498;1277;22530;-57
2023/07/29 05:20:14;;;;;;;6.00;1.50;;;;;;;17.20;90.67;99665.51;105473;1280;22526;-57
2023/07/29 05:22:45;;;;;;;6.40;1.60;;;;;;;17.29;90.69;99663.66;109719;1273;22363;-57
2023/07/29 05:25:16;;;;;;;7.90;1.50;;;;;;;17.37;90.75;99667.31;109724;1280;22326;-58
2023/07/29 05:27:47;;;;;;;5.40;1.70;;;;;;;17.47;90.93;99668.42;109746;1280;23338;-57
2023/07/29 05:30:18;;;;;;;7.50;1.90;;;;;;;17.59;90.93;99669.50;109726;1277;22177;-56
2023/07/29 05:32:49;;;;;;;5.90;1.40;;;;;;;17.71;90.99;99670.61;109758;1277;22318;-57
2023/07/29 05:35:20;;;;;;;8.20;1.30;;;;;;;17.80;90.99;99675.21;109694;1277;22356;-56
2023/07/29 05:37:51;;;;;;;6.10;1.50;;;;;;;17.91;91.18;99676.23;109704;1277;22287;-58
2023/07/29 05:40:22;;;;;;;6.80;1.40;;;;;;;18.01;91.18;99681.48;109753;1277;22324;-58
2023/07/29 05:42:53;;;;;;;6.00;1.50;;;;;;;18.10;90.91;99676.22;109701;1271;22213;-57
2023/07/29 05:45:24;;;;;;;4.20;1.20;;;;;;;18.22;91.02;99673.80;109747;1283;22196;-57
2023/07/29 05:47:56;;;;;;;4.60;1.00;;;;;;;18.33;90.92;99675.95;109723;1270;22201;-57
2023/07/29 05:50:28;;;;;;;10.50;1.50;;;;;;;18.44;90.89;99676.48;106465;1270;24260;-56
2023/07/29 05:52:59;;;;;;;6.60;1.30;;;;;;;18.57;91.00;99673.67;105447;1279;22618;-54
2023/07/29 05:55:30;;;;;;;7.50;1.40;;;;;;;18.69;90.78;99674.33;109764;1280;22157;-58
2023/07/29 05:58:01;;;;;;;4.80;1.20;;;;;;;18.82;90.66;99678.77;109777;1282;22145;-58
2023/07/29 06:00:32;;;;;;;7.10;1.60;;;;;;;18.96;90.55;99682.15;109750;1280;22270;-57
2023/07/29 06:03:03;;;;;;;7.00;1.10;;;;;;;19.09;90.17;99679.98;109754;1280;22142;-58
2023/07/29 06:05:33;;;;;;;4.50;1.10;;;;;;;19.23;90.19;99679.02;109694;1285;22310;-56
2023/07/29 06:08:05;;;;;;;6.70;1.20;;;;;;;19.38;90.31;99679.51;109703;1285;22147;-58
2023/07/29 06:10:35;;;;;;;5.20;1.10;;;;;;;19.54;89.90;99678.85;109705;1285;22360;-56
2023/07/29 06:13:06;;;;;;;4.90;0.90;;;;;;;19.66;89.64;99673.38;109722;1285;22348;-60
2023/07/29 06:15:37;;;;;;;5.70;1.10;;;;;;;19.80;89.37;99677.33;109721;1277;22400;-59
2023/07/29 06:18:08;;;;;;;3.80;0.90;;;;;;;19.92;89.30;99673.48;109733;1281;22146;-60
2023/07/29 06:20:39;;;;;;;7.60;1.20;;;;;;;20.04;89.33;99669.89;109430;1284;22413;-59
2023/07/29 06:23:10;;;;;;;8.80;1.20;;;;;;;20.20;88.90;99677.14;109645;1278;22284;-56
2023/07/29 06:25:42;;;;;;;4.50;1.00;;;;;;;20.34;88.72;99676.80;109736;1280;22425;-57
2023/07/29 06:28:12;;;;;;;8.20;0.90;;;;;;;20.47;88.14;99679.19;109756;1279;22868;-56
2023/07/29 06:30:43;;;;;;;5.50;1.30;;;;;;;20.61;88.04;99680.75;109701;1285;22805;-57
2023/07/29 06:33:14;;;;;;;7.40;1.10;;;;;;;20.74;87.85;99679.31;109714;1270;22287;-58
2023/07/29 06:35:45;;;;;;;3.00;0.90;;;;;;;20.87;87.36;99680.37;109752;1276;22190;-57
2023/07/29 06:38:21;;;;;;;5.10;1.00;;;;;;;20.98;87.17;99678.05;109699;1277;22299;-57
2023/07/29 06:40:52;;;;;;;4.80;0.80;;;;;;;21.10;86.89;99678.24;109716;1278;22424;-59
2023/07/29 06:43:23;;;;;;;3.30;0.70;;;;;;;21.22;86.14;99683.34;109734;1285;23155;-59
2023/07/29 06:45:55;;;;;;;6.40;0.90;;;;;;;21.31;85.95;99687.73;109682;1284;22157;-58
2023/07/29 06:48:26;;;;;;;8.70;0.90;;;;;;;21.40;85.55;99687.35;109716;1280;22907;-56
2023/07/29 06:51:00;;;;;;;4.90;0.80;;;;;;;21.53;85.85;99686.11;109677;1277;22441;-60
2023/07/29 06:53:31;;;;;;;3.70;0.70;;;;;;;21.65;85.36;99681.36;109714;1277;22202;-60
2023/07/29 06:56:02;;;;;;;5.20;0.80;;;;;;;21.80;85.35;99683.30;109708;1280;22328;-59
2023/07/29 06:58:33;;;;;;;3.40;0.80;;;;;;;21.93;84.27;99684.77;109697;1279;23138;-58
2023/07/29 07:01:03;;;;;;;2.20;0.70;;;;;;;22.03;83.51;99673.06;109720;1279;22201;-58
2023/07/29 07:03:34;;;;;;;3.80;0.50;;;;;;;22.12;82.52;99670.02;109705;1285;22326;-59
2023/07/29 07:06:05;;;;;;;5.70;0.60;;;;;;;22.19;82.34;99668.10;109700;1277;23533;-60
2023/07/29 07:08:36;;;;;;;2.70;0.70;;;;;;;22.26;81.57;99663.75;109704;1280;22538;-60
2023/07/29 07:11:07;;;;;;;2.50;0.60;;;;;;;22.32;81.44;99669.59;109719;1285;22987;-58
2023/07/29 07:13:39;;;;;;;2.30;0.70;;;;;;;22.43;80.94;99667.55;109742;1283;22171;-59
2023/07/29 07:16:10;;;;;;;1.40;0.50;;;;;;;22.49;80.24;99671.12;109733;1285;22245;-61
2023/07/29 07:18:41;;;;;;;6.40;0.70;;;;;;;22.58;80.21;99670.48;109733;1277;23438;-58
2023/07/29 07:21:11;;;;;;;2.00;0.50;;;;;;;22.66;79.86;99663.98;109673;1280;22224;-58
2023/07/29 07:23:42;;;;;;;4.70;0.70;;;;;;;22.74;79.54;99664.80;109747;1278;22173;-60
2023/07/29 07:26:13;;;;;;;15.90;4.10;;;;;;;22.83;79.56;99664.48;109729;1280;22210;-61
2023/07/29 07:28:44;;;;;;;13.10;7.00;;;;;;;22.94;79.26;99664.30;109732;1277;22347;-60
2023/07/29 07:31:16;;;;;;;5.50;1.20;;;;;;;23.05;79.16;99668.60;109697;1285;22203;-58
2023/07/29 07:33:47;;;;;;;6.00;0.70;;;;;;;23.16;78.63;99667.38;109720;1279;22244;-59
2023/07/29 07:36:18;;;;;;;2.80;0.60;;;;;;;23.22;77.38;99669.31;109729;1284;22355;-58
2023/07/29 07:38:49;;;;;;;2.50;0.40;;;;;;;23.25;77.22;99673.47;109708;1285;22293;-55
2023/07/29 07:41:19;;;;;;;5.10;0.70;;;;;;;23.31;76.57;99676.21;109679;1277;22355;-57
2023/07/29 07:43:50;;;;;;;1.90;0.60;;;;;;;23.34;76.04;99673.61;109733;1283;22198;-59
2023/07/29 07:46:21;;;;;;;3.60;0.60;;;;;;;23.34;75.78;99666.55;109744;1277;22670;-58
2023/07/29 07:48:52;;;;;;;2.30;0.50;;;;;;;23.39;75.84;99664.91;109724;1277;22403;-57
2023/07/29 07:51:23;;;;;;;3.20;0.40;;;;;;;23.40;74.99;99659.36;109724;1280;22250;-55
2023/07/29 07:53:54;;;;;;;2.60;0.50;;;;;;;23.42;75.43;99657.25;109717;1272;22209;-58
2023/07/29 07:56:25;;;;;;;1.60;0.40;;;;;;;23.53;75.53;99654.80;109671;1278;22305;-59
2023/07/29 07:58:56;;;;;;;2.20;0.50;;;;;;;23.65;75.37;99652.35;109749;1285;22228;-62
2023/07/29 08:01:26;;;;;;;1.50;0.40;;;;;;;23.75;74.75;99650.00;109512;1277;22218;-63
2023/07/29 08:03:57;;;;;;;2.00;0.50;;;;;;;23.81;73.93;99653.35;109734;1285;22187;-59
2023/07/29 08:06:28;;;;;;;4.30;0.60;;;;;;;23.84;73.51;99652.45;109743;1280;22191;-57
2023/07/29 08:08:59;;;;;;;2.50;0.40;;;;;;;23.91;73.70;99656.56;109734;1280;22226;-56
2023/07/29 08:11:30;;;;;;;2.20;0.50;;;;;;;24.01;73.48;99653.41;109685;1277;22174;-61
2023/07/29 08:14:02;;;;;;;2.30;0.50;;;;;;;24.09;73.21;99654.82;109671;1280;22285;-58
2023/07/29 08:16:33;;;;;;;3.80;0.60;;;;;;;24.18;73.28;99651.95;109677;1270;22350;-58
2023/07/29 08:19:04;;;;;;;2.40;0.80;;;;;;;24.28;72.32;99649.96;109675;1277;22324;-59
2023/07/29 08:21:35;;;;;;;3.90;1.10;;;;;;;24.37;72.31;99648.99;109646;1277;22391;-57
2023/07/29 08:24:06;;;;;;;3.30;0.60;;;;;;;24.46;71.78;99644.34;109634;1271;22299;-57
2023/07/29 08:26:37;;;;;;;2.40;0.60;;;;;;;24.53;71.52;99644.14;109695;1285;22354;-58
2023/07/29 08:29:08;;;;;;;2.30;0.70;;;;;;;24.57;71.37;99640.36;109706;1280;22194;-59
2023/07/29 08:31:39;;;;;;;2.80;0.90;;;;;;;24.69;71.27;99632.20;109713;1285;22277;-57
2023/07/29 08:34:10;;;;;;;4.40;0.50;;;;;;;24.84;71.70;99632.16;109754;1285;22849;-57
2023/07/29 08:36:41;;;;;;;2.40;0.60;;;;;;;25.01;70.90;99633.05;109747;1277;22177;-57
2023/07/29 08:39:12;;;;;;;1.90;0.60;;;;;;;25.09;70.08;99627.26;109722;1277;22175;-59
2023/07/29 08:41:55;;;;;;;2.00;0.60;;;;;;;25.16;69.59;99623.98;109675;1285;22948;-60
2023/07/29 08:44:27;;;;;;;2.10;0.50;;;;;;;25.19;69.28;99625.45;109733;1283;22789;-57
2023/07/29 08:47:00;;;;;;;3.00;0.50;;;;;;;25.15;68.49;99623.02;109720;1282;22165;-58
2023/07/29 08:49:33;;;;;;;4.10;0.50;;;;;;;25.13;68.35;99620.15;109704;1280;22295;-55
2023/07/29 08:52:05;;;;;;;1.80;0.40;;;;;;;25.13;68.00;99620.14;109711;1285;22897;-56
2023/07/29 08:54:36;;;;;;;2.80;0.60;;;;;;;25.13;68.02;99616.14;109733;1285;22359;-58
2023/07/29 08:57:08;;;;;;;1.40;0.30;;;;;;;25.18;68.14;99611.23;109725;1282;22274;-59
2023/07/29 08:59:40;;;;;;;1.80;0.30;;;;;;;25.25;67.75;99607.55;109728;1279;22348;-56
2023/07/29 09:02:11;;;;;;;1.10;0.40;;;;;;;25.35;67.79;99607.19;109623;1279;22224;-59
2023/07/29 09:04:43;;;;;;;2.90;0.50;;;;;;;25.44;67.33;99606.16;109720;1285;22273;-58
2023/07/29 09:07:15;;;;;;;1.30;0.30;;;;;;;25.49;66.72;99605.02;109720;1285;22182;-59
2023/07/29 09:09:46;;;;;;;1.20;0.40;;;;;;;25.52;66.17;99605.40;109689;1277;22192;-59
2023/07/29 09:12:18;;;;;;;1.90;0.50;;;;;;;25.55;65.89;99600.89;109732;1285;22220;-58
2023/07/29 09:14:52;;;;;;;0.80;0.30;;;;;;;25.59;65.87;99598.37;109736;1279;22251;-56
2023/07/29 09:17:23;;;;;;;2.80;0.30;;;;;;;25.68;65.59;99600.27;109712;1280;22887;-59
2023/07/29 09:19:54;;;;;;;2.00;0.40;;;;;;;25.73;65.28;99598.54;109714;1277;22390;-58
2023/07/29 09:22:28;;;;;;;1.60;0.30;;;;;;;25.74;64.87;99601.75;109727;1285;22143;-57
2023/07/29 09:25:02;;;;;;;3.10;0.40;;;;;;;25.76;64.62;99599.36;109725;1277;22307;-59
2023/07/29 09:27:38;;;;;;;1.50;0.30;;;;;;;25.85;64.29;99601.27;109722;1277;22153;-60
2023/07/29 09:30:18;;;;;;;3.70;1.20;;;;;;;25.94;63.96;99604.42;109674;1277;22210;-61
2023/07/29 09:32:53;;;;;;;5.90;1.50;;;;;;;26.02;63.69;99601.27;109703;1277;22170;-57
2023/07/29 09:35:25;;;;;;;3.20;0.90;;;;;;;26.03;62.96;99599.95;109734;1280;23000;-59
2023/07/29 09:37:56;;;;;;;2.10;0.50;;;;;;;26.06;63.03;99598.31;109693;1277;22534;-62
2023/07/29 09:40:28;;;;;;;1.40;0.40;;;;;;;26.14;62.53;99596.92;109683;1282;22225;-60
2023/07/29 09:42:58;;;;;;;1.70;0.50;;;;;;;26.22;62.09;99592.81;109705;1280;22806;-60
2023/07/29 09:45:30;;;;;;;1.80;0.40;;;;;;;26.30;61.86;99585.89;109718;1283;22230;-60
2023/07/29 09:48:02;;;;;;;1.60;0.40;;;;;;;26.40;61.70;99584.08;109690;1282;22405;-58
2023/07/29 09:50:33;;;;;;;1.10;0.30;;;;;;;26.47;60.49;99577.85;109660;1285;22225;-61
2023/07/29 09:53:05;;;;;;;1.20;0.30;;;;;;;26.52;60.86;99581.52;109711;1283;23235;-59
2023/07/29 09:55:37;;;;;;;1.60;0.30;;;;;;;26.64;60.90;99582.48;109735;1285;22315;-61
2023/07/29 09:58:09;;;;;;;2.10;0.40;;;;;;;26.79;60.70;99582.30;109737;1285;22278;-61
2023/07/29 10:00:41;;;;;;;2.80;0.40;;;;;;;26.91;60.08;99581.63;109612;1278;22468;-60
2023/07/29 10:03:14;;;;;;;3.10;0.50;;;;;;;27.00;59.44;99583.79;109690;1279;22149;-61
2023/07/29 10:05:46;;;;;;;1.10;0.40;;;;;;;26.99;58.75;99576.45;109728;1278;23449;-60
2023/07/29 10:08:18;;;;;;;4.30;0.50;;;;;;;26.96;59.25;99572.83;109732;1279;22191;-61
2023/07/29 10:10:50;;;;;;;2.60;0.40;;;;;;;27.02;58.97;99571.54;109702;1280;22186;-60
2023/07/29 10:13:21;;;;;;;2.00;0.40;;;;;;;27.10;58.58;99578.21;109689;1283;22174;-60
2023/07/29 10:15:54;;;;;;;1.70;0.60;;;;;;;27.16;58.25;99572.10;109710;1277;22195;-59
2023/07/29 10:18:25;;;;;;;3.00;0.40;;;;;;;27.20;57.77;99573.64;109714;1280;22940;-61
2023/07/29 10:20:58;;;;;;;2.80;0.50;;;;;;;27.20;57.81;99573.94;109717;1279;22286;-62
2023/07/29 10:23:43;;;;;;;2.00;0.50;;;;;;;27.23;57.19;99571.15;109709;1285;22166;-61
2023/07/29 10:26:17;;;;;;;3.40;0.70;;;;;;;27.21;57.30;99571.98;109702;1285;22221;-62
2023/07/29 10:28:53;;;;;;;2.60;0.70;;;;;;;27.24;57.15;99568.19;109696;1281;22228;-62
2023/07/29 10:31:25;;;;;;;2.40;0.80;;;;;;;27.24;56.91;99570.77;109712;1280;22355;-62
2023/07/29 10:33:57;;;;;;;2.70;0.80;;;;;;;27.25;57.35;99571.27;109723;1279;22187;-60
2023/07/29 10:36:29;;;;;;;2.60;0.90;;;;;;;27.35;57.50;99567.97;109450;1285;25371;-62
2023/07/29 10:39:01;;;;;;;2.40;0.80;;;;;;;27.47;56.40;99566.73;105356;1283;23049;-62
2023/07/29 10:41:59;;;;;;;5.10;1.30;;;;;;;27.56;56.50;99561.34;109717;1285;22167;-62
2023/07/29 10:44:52;;;;;;;4.30;1.00;;;;;;;27.64;55.74;99558.45;109741;1280;22377;-62
2023/07/29 10:47:25;;;;;;;2.80;0.90;;;;;;;27.59;55.53;99555.66;109690;1283;22881;-58
2023/07/29 10:49:57;;;;;;;2.80;0.90;;;;;;;27.52;55.34;99550.75;109767;1285;22204;-59
2023/07/29 10:52:43;;;;;;;5.30;1.50;;;;;;;27.47;55.35;99546.09;109717;1285;22253;-59
2023/07/29 10:55:30;;;;;;;5.40;1.20;;;;;;;27.48;55.43;99541.34;109672;1276;22168;-59
2023/07/29 10:58:12;;;;;;;3.30;0.90;;;;;;;27.62;55.77;99536.27;109742;1280;22300;-58
2023/07/29 11:00:46;;;;;;;3.20;1.00;;;;;;;27.73;54.97;99528.38;109669;1279;22675;-56
2023/07/29 11:03:17;;;;;;;3.30;0.80;;;;;;;27.78;55.07;99525.41;109721;1279;22337;-58
2023/07/29 11:05:54;;;;;;;3.20;0.90;;;;;;;27.85;54.78;99525.19;109696;1277;22209;-60
2023/07/29 11:08:28;;;;;;;2.70;1.00;;;;;;;27.92;54.24;99522.60;109760;1285;22284;-56
2023/07/29 11:11:05;;;;;;;2.30;0.90;;;;;;;27.90;53.91;99517.92;109729;1282;23063;-56
2023/07/29 11:13:38;;;;;;;1.80;0.70;;;;;;;27.91;54.06;99512.79;109780;1285;22199;-55
2023/07/29 11:16:11;;;;;;;1.90;0.80;;;;;;;27.95;53.52;99510.23;109681;1279;22839;-59
2023/07/29 11:18:44;;;;;;;3.30;1.00;;;;;;;27.99;53.64;99503.33;109578;1285;222393;-58
2023/07/29 11:21:16;;;;;;;4.20;0.90;;;;;;;28.05;53.52;99497.10;109740;1279;22399;-59
2023/07/29 11:23:49;;;;;;;4.60;0.90;;;;;;;28.13;53.47;99499.34;109747;1285;22245;-59
2023/07/29 11:26:21;;;;;;;4.00;1.00;;;;;;;28.23;52.90;99494.98;109720;1285;22214;-57
2023/07/29 11:28:52;;;;;;;2.10;0.80;;;;;;;28.30;52.52;99493.69;109728;1277;22341;-56
2023/07/29 11:31:23;;;;;;;3.00;1.00;;;;;;;28.36;52.70;99491.45;109628;1277;22569;-60
2023/07/29 11:33:54;;;;;;;3.40;0.80;;;;;;;28.40;52.24;99494.58;109725;1285;22235;-58
2023/07/29 11:36:26;;;;;;;2.80;0.90;;;;;;;28.38;51.92;99486.89;109733;1280;22295;-59
2023/07/29 11:38:58;;;;;;;2.80;0.90;;;;;;;28.41;52.17;99484.73;109733;1285;22968;-59
2023/07/29 11:41:29;;;;;;;1.80;0.70;;;;;;;28.47;51.90;99484.55;109714;1285;22734;-56
2023/07/29 11:44:00;;;;;;;5.10;0.80;;;;;;;28.54;51.71;99482.29;109685;1285;22156;-57
2023/07/29 11:46:31;;;;;;;2.90;0.50;;;;;;;28.53;51.02;99477.80;109716;1285;22375;-55